createdAt,value
2022-09-23T00:00:00.464Z,100.0
2022-09-23T00:01:04.870Z,100.0
2022-09-23T00:02:00.314Z,100.0
2022-09-23T00:03:00.350Z,100.0
2022-09-23T00:04:00.340Z,100.0
2022-09-23T00:05:00.248Z,100.0
2022-09-23T00:06:03.884Z,100.0
2022-09-23T00:07:00.355Z,100.0
2022-09-23T00:08:00.597Z,100.0
2022-09-23T00:09:00.246Z,100.0
2022-09-23T00:10:00.377Z,100.0
2022-09-23T00:11:06.131Z,100.0
2022-09-23T00:12:00.419Z,100.0
2022-09-23T00:13:00.284Z,100.0
2022-09-23T00:14:00.343Z,100.0
2022-09-23T00:15:00.257Z,100.0
2022-09-23T00:16:03.887Z,100.0
2022-09-23T00:17:00.391Z,100.0
2022-09-23T00:18:00.222Z,100.0
2022-09-23T00:19:01.584Z,100.0
2022-09-23T00:20:00.433Z,100.0
2022-09-23T00:21:10.793Z,100.0
2022-09-23T00:22:00.212Z,100.0
2022-09-23T00:23:00.692Z,100.0
2022-09-23T00:24:00.514Z,100.0
2022-09-23T00:25:00.208Z,100.0
2022-09-23T00:26:02.247Z,100.0
2022-09-23T00:27:00.351Z,100.0
2022-09-23T00:28:00.423Z,100.0
2022-09-23T00:29:00.410Z,100.0
2022-09-23T00:30:01.250Z,100.0
2022-09-23T00:31:04.642Z,100.0
2022-09-23T00:32:00.353Z,100.0
2022-09-23T00:33:00.235Z,100.0
2022-09-23T00:34:00.896Z,100.0
2022-09-23T00:35:00.521Z,100.0
2022-09-23T00:36:02.063Z,100.0
2022-09-23T00:37:00.242Z,100.0
2022-09-23T00:38:00.216Z,100.0
2022-09-23T00:39:00.261Z,100.0
2022-09-23T00:40:01.284Z,100.0
2022-09-23T00:41:00.430Z,100.0
2022-09-23T00:42:00.275Z,100.0
2022-09-23T00:43:00.245Z,100.0
2022-09-23T00:44:01.771Z,100.0
2022-09-23T00:45:00.781Z,100.0
2022-09-23T00:46:00.370Z,100.0
2022-09-23T00:47:00.371Z,100.0
2022-09-23T00:48:01.691Z,100.0
2022-09-23T00:49:09.848Z,100.0
2022-09-23T00:50:20.127Z,100.0
2022-09-23T00:51:00.795Z,100.0
2022-09-23T00:52:08.836Z,100.0
2022-09-23T00:53:04.181Z,100.0
2022-09-23T00:54:01.854Z,100.0
2022-09-23T00:55:06.401Z,100.0
2022-09-23T00:56:03.434Z,100.0
2022-09-23T00:57:01.197Z,100.0
2022-09-23T00:58:03.601Z,100.0
2022-09-23T00:59:01.429Z,100.0
2022-09-23T01:00:00.685Z,100.0
2022-09-23T01:01:01.931Z,100.0
2022-09-23T01:02:01.866Z,100.0
2022-09-23T01:03:01.195Z,100.0
2022-09-23T01:04:00.372Z,100.0
2022-09-23T01:05:04.010Z,100.0
2022-09-23T01:06:00.320Z,100.0
2022-09-23T01:07:00.226Z,100.0
2022-09-23T01:08:02.366Z,100.0
2022-09-23T01:09:00.510Z,100.0
2022-09-23T01:10:01.230Z,100.0
2022-09-23T01:11:20.133Z,100.0
2022-09-23T01:12:10.173Z,100.0
2022-09-23T01:13:10.192Z,100.0
2022-09-23T01:14:13.197Z,100.0
2022-09-23T01:15:11.247Z,100.0
2022-09-23T01:16:13.020Z,100.0
2022-09-23T01:17:10.316Z,100.0
2022-09-23T01:18:11.217Z,100.0
2022-09-23T01:19:14.333Z,100.0
2022-09-23T01:20:13.442Z,100.0
2022-09-23T01:21:04.896Z,100.0
2022-09-23T01:22:13.462Z,100.0
2022-09-23T01:23:20.159Z,100.0
2022-09-23T01:24:11.205Z,100.0
2022-09-23T01:25:20.144Z,100.0
2022-09-23T01:26:20.143Z,100.0
2022-09-23T01:27:10.192Z,100.0
2022-09-23T01:28:01.274Z,100.0
2022-09-23T01:29:10.228Z,100.0
2022-09-23T01:30:17.832Z,100.0
2022-09-23T01:31:06.450Z,100.0
2022-09-23T01:32:16.617Z,100.0
2022-09-23T01:33:02.983Z,100.0
2022-09-23T01:34:10.192Z,100.0
2022-09-23T01:35:20.166Z,100.0
2022-09-23T01:36:10.174Z,100.0
2022-09-23T01:37:12.897Z,100.0
2022-09-23T01:38:11.217Z,100.0
2022-09-23T01:39:09.471Z,100.0
2022-09-23T01:40:16.896Z,100.0
2022-09-23T01:41:11.476Z,100.0
2022-09-23T01:42:11.189Z,100.0
2022-09-23T01:43:08.258Z,100.0
2022-09-23T01:44:08.543Z,100.0
2022-09-23T01:45:13.200Z,100.0
2022-09-23T01:46:02.689Z,100.0
2022-09-23T01:47:11.880Z,100.0
2022-09-23T01:48:10.256Z,100.0
2022-09-23T01:49:08.026Z,100.0
2022-09-23T01:50:05.573Z,100.0
2022-09-23T01:51:12.902Z,100.0
2022-09-23T01:52:19.547Z,100.0
2022-09-23T01:53:05.769Z,100.0
2022-09-23T01:54:14.051Z,100.0
2022-09-23T01:55:05.905Z,100.0
2022-09-23T01:56:06.912Z,100.0
2022-09-23T01:57:05.872Z,100.0
2022-09-23T01:58:05.632Z,100.0
2022-09-23T01:59:06.186Z,100.0
2022-09-23T02:00:08.559Z,100.0
2022-09-23T02:01:03.586Z,100.0
2022-09-23T02:02:13.888Z,100.0
2022-09-23T02:03:05.691Z,100.0
2022-09-23T02:04:06.441Z,100.0
2022-09-23T02:05:06.551Z,100.0
2022-09-23T02:06:08.517Z,100.0
2022-09-23T02:07:06.881Z,100.0
2022-09-23T02:08:13.129Z,100.0
2022-09-23T02:09:04.060Z,100.0
2022-09-23T02:10:08.527Z,100.0
2022-09-23T02:11:11.372Z,100.0
2022-09-23T02:12:05.011Z,100.0
2022-09-23T02:13:06.309Z,100.0
2022-09-23T02:14:08.058Z,100.0
2022-09-23T02:15:09.089Z,100.0
2022-09-23T02:16:06.823Z,100.0
2022-09-23T02:17:09.306Z,100.0
2022-09-23T02:18:05.792Z,100.0
2022-09-23T02:19:08.411Z,100.0
2022-09-23T02:20:04.520Z,100.0
2022-09-23T02:21:05.699Z,100.0
2022-09-23T02:22:11.539Z,100.0
2022-09-23T02:23:13.793Z,100.0
2022-09-23T02:24:14.596Z,100.0
2022-09-23T02:25:00.960Z,100.0
2022-09-23T02:26:07.429Z,100.0
2022-09-23T02:27:04.581Z,100.0
2022-09-23T02:28:10.771Z,100.0
2022-09-23T02:29:11.170Z,100.0
2022-09-23T02:30:04.431Z,100.0
2022-09-23T02:31:07.622Z,100.0
2022-09-23T02:32:14.004Z,100.0
2022-09-23T02:33:04.883Z,100.0
2022-09-23T02:34:11.155Z,100.0
2022-09-23T02:35:09.924Z,100.0
2022-09-23T02:36:09.757Z,100.0
2022-09-23T02:37:06.725Z,100.0
2022-09-23T02:38:20.109Z,100.0
2022-09-23T02:39:06.390Z,100.0
2022-09-23T02:40:13.454Z,100.0
2022-09-23T02:41:06.321Z,100.0
2022-09-23T02:42:03.859Z,100.0
2022-09-23T02:43:05.249Z,100.0
2022-09-23T02:44:10.235Z,100.0
2022-09-23T02:45:00.225Z,100.0
2022-09-23T02:46:02.718Z,100.0
2022-09-23T02:47:00.597Z,100.0
2022-09-23T02:48:12.892Z,100.0
2022-09-23T02:49:00.201Z,100.0
2022-09-23T02:50:00.671Z,100.0
2022-09-23T02:51:00.644Z,100.0
2022-09-23T02:52:02.635Z,100.0
2022-09-23T02:53:00.471Z,100.0
2022-09-23T02:54:00.355Z,100.0
2022-09-23T02:55:00.616Z,100.0
2022-09-23T02:56:01.344Z,100.0
2022-09-23T02:57:04.150Z,100.0
2022-09-23T02:58:01.903Z,100.0
2022-09-23T02:59:01.121Z,100.0
2022-09-23T03:00:00.548Z,100.0
2022-09-23T03:01:11.217Z,100.0
2022-09-23T03:02:14.416Z,100.0
2022-09-23T03:03:11.748Z,100.0
2022-09-23T03:04:14.876Z,100.0
2022-09-23T03:05:06.021Z,100.0
2022-09-23T03:06:08.915Z,100.0
2022-09-23T03:07:07.991Z,100.0
2022-09-23T03:08:10.223Z,100.0
2022-09-23T03:09:04.646Z,100.0
2022-09-23T03:10:17.959Z,100.0
2022-09-23T03:11:10.571Z,100.0
2022-09-23T03:12:11.183Z,100.0
2022-09-23T03:13:20.152Z,100.0
2022-09-23T03:14:17.860Z,100.0
2022-09-23T03:15:10.168Z,100.0
2022-09-23T03:16:08.917Z,100.0
2022-09-23T03:17:01.922Z,100.0
2022-09-23T03:18:04.534Z,100.0
2022-09-23T03:19:04.554Z,100.0
2022-09-23T03:20:09.621Z,100.0
2022-09-23T03:21:06.260Z,100.0
2022-09-23T03:22:07.357Z,100.0
2022-09-23T03:23:04.599Z,100.0
2022-09-23T03:24:05.189Z,100.0
2022-09-23T03:25:07.800Z,100.0
2022-09-23T03:26:07.125Z,100.0
2022-09-23T03:27:04.157Z,100.0
2022-09-23T03:28:02.141Z,100.0
2022-09-23T03:29:04.518Z,100.0
2022-09-23T03:30:01.141Z,100.0
2022-09-23T03:31:01.283Z,100.0
2022-09-23T03:32:00.444Z,100.0
2022-09-23T03:33:03.327Z,100.0
2022-09-23T03:34:04.379Z,100.0
2022-09-23T03:35:02.755Z,100.0
2022-09-23T03:36:05.302Z,100.0
2022-09-23T03:37:08.437Z,100.0
2022-09-23T03:38:10.412Z,100.0
2022-09-23T03:39:13.684Z,100.0
2022-09-23T03:40:03.718Z,100.0
2022-09-23T03:41:02.936Z,100.0
2022-09-23T03:42:06.496Z,100.0
2022-09-23T03:43:01.076Z,100.0
2022-09-23T03:44:01.150Z,100.0
2022-09-23T03:45:04.061Z,100.0
2022-09-23T03:46:00.326Z,100.0
2022-09-23T03:47:00.838Z,100.0
2022-09-23T03:48:00.548Z,100.0
2022-09-23T03:49:09.360Z,100.0
2022-09-23T03:50:00.749Z,100.0
2022-09-23T03:51:16.572Z,100.0
2022-09-23T03:52:00.574Z,100.0
2022-09-23T03:53:00.477Z,100.0
2022-09-23T03:54:00.254Z,100.0
2022-09-23T03:55:00.254Z,100.0
2022-09-23T03:56:00.416Z,100.0
2022-09-23T03:57:02.087Z,100.0
2022-09-23T03:58:00.230Z,100.0
2022-09-23T03:59:00.449Z,100.0
2022-09-23T04:00:00.672Z,100.0
2022-09-23T04:01:00.324Z,100.0
2022-09-23T04:02:00.341Z,100.0
2022-09-23T04:03:00.316Z,100.0
2022-09-23T04:04:00.428Z,100.0
2022-09-23T04:05:00.785Z,100.0
2022-09-23T04:06:00.230Z,100.0
2022-09-23T04:07:00.879Z,100.0
2022-09-23T04:08:00.439Z,100.0
2022-09-23T04:09:00.449Z,100.0
2022-09-23T04:10:00.234Z,100.0
2022-09-23T04:11:01.772Z,100.0
2022-09-23T04:12:00.395Z,100.0
2022-09-23T04:13:00.202Z,100.0
2022-09-23T04:14:00.747Z,100.0
2022-09-23T04:15:00.333Z,100.0
2022-09-23T04:16:00.473Z,100.0
2022-09-23T04:17:00.217Z,100.0
2022-09-23T04:18:00.209Z,100.0
2022-09-23T04:19:00.265Z,100.0
2022-09-23T04:20:00.375Z,100.0
2022-09-23T04:21:00.330Z,100.0
2022-09-23T04:22:00.314Z,100.0
2022-09-23T04:23:00.207Z,100.0
2022-09-23T04:24:00.570Z,100.0
2022-09-23T04:25:00.345Z,100.0
2022-09-23T04:26:00.225Z,100.0
2022-09-23T04:27:00.288Z,100.0
2022-09-23T04:28:00.383Z,100.0
2022-09-23T04:29:00.301Z,100.0
2022-09-23T04:30:00.288Z,100.0
2022-09-23T04:31:05.171Z,100.0
2022-09-23T04:32:00.424Z,100.0
2022-09-23T04:33:00.213Z,100.0
2022-09-23T04:34:00.286Z,100.0
2022-09-23T04:35:00.254Z,100.0
2022-09-23T04:36:00.600Z,100.0
2022-09-23T04:37:00.288Z,100.0
2022-09-23T04:38:00.206Z,100.0
2022-09-23T04:39:00.857Z,100.0
2022-09-23T04:40:00.390Z,100.0
2022-09-23T04:41:00.224Z,100.0
2022-09-23T04:42:00.204Z,100.0
2022-09-23T04:43:00.269Z,100.0
2022-09-23T04:44:00.522Z,100.0
2022-09-23T04:45:00.221Z,100.0
2022-09-23T04:46:02.709Z,100.0
2022-09-23T04:47:00.416Z,100.0
2022-09-23T04:48:00.442Z,100.0
2022-09-23T04:49:00.350Z,100.0
2022-09-23T04:50:00.276Z,100.0
2022-09-23T04:51:02.576Z,100.0
2022-09-23T04:52:00.494Z,100.0
2022-09-23T04:53:00.449Z,100.0
2022-09-23T04:54:00.213Z,100.0
2022-09-23T04:55:00.241Z,100.0
2022-09-23T04:56:03.270Z,100.0
2022-09-23T04:57:00.204Z,100.0
2022-09-23T04:58:00.225Z,100.0
2022-09-23T04:59:00.489Z,100.0
2022-09-23T05:00:00.304Z,100.0
2022-09-23T05:01:08.507Z,100.0
2022-09-23T05:02:00.264Z,100.0
2022-09-23T05:03:00.213Z,100.0
2022-09-23T05:04:03.441Z,100.0
2022-09-23T05:05:00.229Z,100.0
2022-09-23T05:06:00.301Z,100.0
2022-09-23T05:07:03.244Z,100.0
2022-09-23T05:08:00.361Z,100.0
2022-09-23T05:09:03.139Z,100.0
2022-09-23T05:10:00.227Z,100.0
2022-09-23T05:11:03.249Z,100.0
2022-09-23T05:12:00.476Z,100.0
2022-09-23T05:13:00.203Z,100.0
2022-09-23T05:14:00.683Z,100.0
2022-09-23T05:15:00.246Z,100.0
2022-09-23T05:16:02.663Z,100.0
2022-09-23T05:17:00.302Z,100.0
2022-09-23T05:18:00.219Z,100.0
2022-09-23T05:19:00.399Z,100.0
2022-09-23T05:20:00.506Z,100.0
2022-09-23T05:21:01.298Z,100.0
2022-09-23T05:22:00.202Z,100.0
2022-09-23T05:23:00.222Z,100.0
2022-09-23T05:24:00.345Z,100.0
2022-09-23T05:25:00.222Z,100.0
2022-09-23T05:26:04.310Z,100.0
2022-09-23T05:27:00.202Z,100.0
2022-09-23T05:28:00.431Z,100.0
2022-09-23T05:29:00.376Z,100.0
2022-09-23T05:30:00.199Z,100.0
2022-09-23T05:31:01.103Z,100.0
2022-09-23T05:32:00.328Z,100.0
2022-09-23T05:33:00.218Z,100.0
2022-09-23T05:34:02.950Z,100.0
2022-09-23T05:35:00.230Z,100.0
2022-09-23T05:36:01.276Z,100.0
2022-09-23T05:37:00.475Z,100.0
2022-09-23T05:38:00.205Z,100.0
2022-09-23T05:39:00.465Z,100.0
2022-09-23T05:40:00.382Z,100.0
2022-09-23T05:41:03.422Z,100.0
2022-09-23T05:42:00.220Z,100.0
2022-09-23T05:43:00.194Z,100.0
2022-09-23T05:44:00.689Z,100.0
2022-09-23T05:45:00.218Z,100.0
2022-09-23T05:46:07.824Z,100.0
2022-09-23T05:47:00.279Z,100.0
2022-09-23T05:48:00.310Z,100.0
2022-09-23T05:49:02.556Z,100.0
2022-09-23T05:50:00.865Z,100.0
2022-09-23T05:51:00.514Z,100.0
2022-09-23T05:52:00.336Z,100.0
2022-09-23T05:53:00.214Z,100.0
2022-09-23T05:54:00.695Z,100.0
2022-09-23T05:55:00.195Z,100.0
2022-09-23T05:56:00.443Z,100.0
2022-09-23T05:57:02.768Z,100.0
2022-09-23T05:58:00.223Z,100.0
2022-09-23T05:59:01.059Z,100.0
2022-09-23T06:00:00.330Z,100.0
2022-09-23T06:01:00.336Z,100.0
2022-09-23T06:02:00.231Z,100.0
2022-09-23T06:03:00.249Z,99.6
2022-09-23T06:04:01.634Z,98.4
2022-09-23T06:05:00.209Z,97.5
2022-09-23T06:06:00.188Z,96.2
2022-09-23T06:07:03.250Z,95.1
2022-09-23T06:08:00.400Z,94.3
2022-09-23T06:09:00.486Z,93.8
2022-09-23T06:10:00.241Z,93.1
2022-09-23T06:11:06.166Z,92.6
2022-09-23T06:12:00.353Z,92.0
2022-09-23T06:13:00.219Z,91.3
2022-09-23T06:14:00.736Z,90.2
2022-09-23T06:15:00.232Z,90.6
2022-09-23T06:16:00.748Z,90.3
2022-09-23T06:17:00.241Z,90.3
2022-09-23T06:18:00.910Z,89.7
2022-09-23T06:19:05.216Z,90.1
2022-09-23T06:20:00.427Z,91.8
2022-09-23T06:21:01.450Z,91.9
2022-09-23T06:22:00.220Z,90.8
2022-09-23T06:23:08.210Z,92.1
2022-09-23T06:24:00.567Z,92.3
2022-09-23T06:25:00.287Z,91.3
2022-09-23T06:26:01.358Z,91.2
2022-09-23T06:27:00.266Z,90.9
2022-09-23T06:28:00.915Z,90.1
2022-09-23T06:29:01.302Z,88.9
2022-09-23T06:30:00.251Z,90.3
2022-09-23T06:31:02.812Z,87.6
2022-09-23T06:32:00.631Z,86.7
2022-09-23T06:33:00.307Z,85.8
2022-09-23T06:34:16.392Z,81.5
2022-09-23T06:35:00.315Z,80.0
2022-09-23T06:36:03.224Z,80.6
2022-09-23T06:37:08.639Z,82.0
2022-09-23T06:38:03.833Z,82.3
2022-09-23T06:39:00.594Z,83.2
2022-09-23T06:40:00.394Z,82.3
2022-09-23T06:41:00.789Z,82.3
2022-09-23T06:42:00.299Z,81.5
2022-09-23T06:43:00.937Z,80.2
2022-09-23T06:44:00.447Z,80.5
2022-09-23T06:45:00.291Z,80.5
2022-09-23T06:46:03.076Z,81.6
2022-09-23T06:47:00.295Z,82.9
2022-09-23T06:48:00.454Z,82.1
2022-09-23T06:49:00.279Z,81.6
2022-09-23T06:50:00.239Z,82.5
2022-09-23T06:51:02.532Z,81.6
2022-09-23T06:52:00.342Z,82.3
2022-09-23T06:53:00.325Z,81.0
2022-09-23T06:54:00.395Z,80.1
2022-09-23T06:55:00.820Z,78.7
2022-09-23T06:56:01.898Z,79.6
2022-09-23T06:57:00.247Z,78.8
2022-09-23T06:58:00.240Z,78.8
2022-09-23T06:59:00.249Z,77.8
2022-09-23T07:00:00.424Z,78.7
2022-09-23T07:01:01.782Z,79.6
2022-09-23T07:02:00.612Z,78.1
2022-09-23T07:03:00.393Z,77.6
2022-09-23T07:04:00.528Z,78.4
2022-09-23T07:05:00.227Z,77.1
2022-09-23T07:06:00.966Z,77.0
2022-09-23T07:07:00.256Z,77.0
2022-09-23T07:08:00.496Z,77.0
2022-09-23T07:09:00.220Z,78.0
2022-09-23T07:10:00.231Z,76.3
2022-09-23T07:11:02.855Z,75.5
2022-09-23T07:12:00.405Z,75.3
2022-09-23T07:13:01.152Z,74.8
2022-09-23T07:14:00.613Z,74.6
2022-09-23T07:15:00.369Z,73.7
2022-09-23T07:16:00.877Z,73.0
2022-09-23T07:17:00.243Z,74.1
2022-09-23T07:18:00.247Z,73.9
2022-09-23T07:19:00.231Z,74.9
2022-09-23T07:20:00.547Z,73.3
2022-09-23T07:21:05.467Z,74.8
2022-09-23T07:22:00.226Z,76.5
2022-09-23T07:23:00.239Z,76.3
2022-09-23T07:24:00.459Z,76.3
2022-09-23T07:25:00.257Z,76.1
2022-09-23T07:26:00.551Z,74.0
2022-09-23T07:27:00.962Z,72.7
2022-09-23T07:28:00.363Z,73.3
2022-09-23T07:29:01.335Z,73.0
2022-09-23T07:30:00.232Z,72.6
2022-09-23T07:31:04.455Z,73.2
2022-09-23T07:32:11.538Z,73.2
2022-09-23T07:33:00.372Z,72.8
2022-09-23T07:34:01.189Z,73.0
2022-09-23T07:35:00.246Z,73.0
2022-09-23T07:36:05.130Z,72.6
2022-09-23T07:37:00.212Z,72.1
2022-09-23T07:38:00.218Z,71.2
2022-09-23T07:39:00.225Z,72.0
2022-09-23T07:40:00.355Z,72.2
2022-09-23T07:41:05.496Z,71.8
2022-09-23T07:42:00.220Z,71.7
2022-09-23T07:43:00.229Z,69.9
2022-09-23T07:44:00.653Z,68.2
2022-09-23T07:45:00.232Z,67.4
2022-09-23T07:46:02.938Z,67.8
2022-09-23T07:47:00.545Z,68.1
2022-09-23T07:48:00.699Z,68.5
2022-09-23T07:49:00.678Z,69.0
2022-09-23T07:50:00.238Z,67.3
2022-09-23T07:51:05.115Z,67.2
2022-09-23T07:52:00.349Z,66.7
2022-09-23T07:53:00.224Z,66.2
2022-09-23T07:54:00.487Z,65.8
2022-09-23T07:55:00.208Z,66.1
2022-09-23T07:56:00.884Z,67.1
2022-09-23T07:57:00.428Z,67.6
2022-09-23T07:58:00.230Z,67.9
2022-09-23T07:59:00.719Z,69.0
2022-09-23T08:00:00.748Z,68.9
2022-09-23T08:01:02.751Z,67.3
2022-09-23T08:02:00.333Z,66.8
2022-09-23T08:03:00.337Z,66.8
2022-09-23T08:04:04.678Z,67.0
2022-09-23T08:05:00.210Z,65.9
2022-09-23T08:06:03.892Z,66.8
2022-09-23T08:07:03.341Z,66.1
2022-09-23T08:08:00.319Z,66.9
2022-09-23T08:09:00.410Z,67.6
2022-09-23T08:10:00.672Z,67.3
2022-09-23T08:11:02.990Z,66.1
2022-09-23T08:12:00.639Z,65.7
2022-09-23T08:13:00.230Z,64.0
2022-09-23T08:14:00.221Z,63.4
2022-09-23T08:15:00.344Z,63.4
2022-09-23T08:16:00.704Z,64.5
2022-09-23T08:17:00.331Z,65.3
2022-09-23T08:18:00.209Z,64.1
2022-09-23T08:19:00.494Z,64.9
2022-09-23T08:20:00.584Z,65.1
2022-09-23T08:21:00.332Z,64.8
2022-09-23T08:22:00.243Z,65.7
2022-09-23T08:23:00.212Z,65.1
2022-09-23T08:24:00.412Z,67.5
2022-09-23T08:25:00.216Z,66.4
2022-09-23T08:26:02.531Z,66.6
2022-09-23T08:27:00.401Z,66.0
2022-09-23T08:28:00.385Z,65.3
2022-09-23T08:29:00.279Z,66.2
2022-09-23T08:30:00.237Z,65.0
2022-09-23T08:31:00.609Z,65.5
2022-09-23T08:32:00.420Z,64.6
2022-09-23T08:33:00.248Z,64.5
2022-09-23T08:34:00.412Z,65.7
2022-09-23T08:35:00.218Z,67.5
2022-09-23T08:36:01.771Z,67.4
2022-09-23T08:37:00.564Z,66.1
2022-09-23T08:38:00.209Z,65.4
2022-09-23T08:39:00.682Z,65.4
2022-09-23T08:40:00.371Z,65.2
2022-09-23T08:41:17.482Z,62.9
2022-09-23T08:42:15.188Z,64.2
2022-09-23T08:43:00.242Z,64.2
2022-09-23T08:44:03.422Z,64.1
2022-09-23T08:45:04.360Z,63.4
2022-09-23T08:46:03.349Z,63.2
2022-09-23T08:47:08.359Z,62.5
2022-09-23T08:48:12.825Z,62.4
2022-09-23T08:49:01.083Z,63.7
2022-09-23T08:50:18.951Z,61.1
2022-09-23T08:51:04.154Z,61.1
2022-09-23T08:52:08.782Z,60.3
2022-09-23T08:53:03.561Z,59.6
2022-09-23T08:54:00.657Z,61.1
2022-09-23T08:55:01.309Z,60.3
2022-09-23T08:56:05.962Z,60.0
2022-09-23T08:57:02.757Z,59.7
2022-09-23T08:58:24.967Z,60.2
2022-09-23T08:59:10.193Z,61.1
2022-09-23T09:00:01.707Z,60.6
2022-09-23T09:01:11.865Z,60.7
2022-09-23T09:02:10.220Z,61.0
2022-09-23T09:03:00.652Z,59.8
2022-09-23T09:04:12.503Z,59.3
2022-09-23T09:05:04.727Z,59.1
2022-09-23T09:06:00.253Z,60.2
2022-09-23T09:07:34.673Z,60.1
2022-09-23T09:08:02.410Z,61.3
2022-09-23T09:09:02.449Z,59.5
2022-09-23T09:10:19.761Z,61.8
2022-09-23T09:11:00.355Z,61.8
2022-09-23T09:12:13.124Z,62.3
2022-09-23T09:13:08.290Z,61.9
2022-09-23T09:14:14.808Z,62.6
2022-09-23T09:15:02.309Z,62.6
2022-09-23T09:16:13.491Z,63.5
2022-09-23T09:17:05.482Z,64.5
2022-09-23T09:18:05.267Z,63.7
2022-09-23T09:19:00.911Z,62.9
2022-09-23T09:20:10.153Z,62.8
2022-09-23T09:21:10.277Z,64.7
2022-09-23T09:22:03.977Z,64.5
2022-09-23T09:23:14.072Z,65.0
2022-09-23T09:24:02.454Z,65.0
2022-09-23T09:25:17.947Z,69.3
2022-09-23T09:26:01.727Z,69.3
2022-09-23T09:27:10.204Z,75.1
2022-09-23T09:28:00.375Z,74.8
2022-09-23T09:29:33.794Z,71.9
2022-09-23T09:30:00.758Z,71.9
2022-09-23T09:31:10.433Z,73.3
2022-09-23T09:32:13.885Z,75.7
2022-09-23T09:33:03.562Z,75.7
2022-09-23T09:34:04.910Z,75.2
2022-09-23T09:35:08.196Z,75.4
2022-09-23T09:36:07.705Z,75.7
2022-09-23T09:37:07.703Z,78.3
2022-09-23T09:38:00.300Z,77.7
2022-09-23T09:39:00.980Z,77.2
2022-09-23T09:40:01.009Z,77.5
2022-09-23T09:41:11.020Z,76.4
2022-09-23T09:42:01.026Z,76.5
2022-09-23T09:43:01.287Z,76.3
2022-09-23T09:44:07.230Z,76.0
2022-09-23T09:45:03.349Z,75.9
2022-09-23T09:46:20.180Z,77.6
2022-09-23T09:47:20.129Z,77.8
2022-09-23T09:48:07.008Z,77.8
2022-09-23T09:49:09.146Z,80.1
2022-09-23T09:50:12.202Z,78.6
2022-09-23T09:51:19.688Z,75.9
2022-09-23T09:52:11.204Z,75.9
2022-09-23T09:53:13.797Z,74.1
2022-09-23T09:54:15.319Z,73.6
2022-09-23T09:55:11.128Z,73.6
2022-09-23T09:56:05.359Z,74.3
2022-09-23T09:57:03.592Z,76.9
2022-09-23T09:58:03.199Z,77.7
2022-09-23T09:59:08.066Z,76.0
2022-09-23T10:00:20.073Z,77.5
2022-09-23T10:01:00.678Z,77.5
2022-09-23T10:02:12.463Z,76.7
2022-09-23T10:03:02.839Z,78.1
2022-09-23T10:04:04.089Z,80.1
2022-09-23T10:05:04.286Z,78.1
2022-09-23T10:06:15.195Z,78.5
2022-09-23T10:07:12.435Z,78.5
2022-09-23T10:08:17.529Z,76.1
2022-09-23T10:09:00.228Z,76.1
2022-09-23T10:10:31.887Z,74.2
2022-09-23T10:11:02.833Z,74.2
2022-09-23T10:12:02.783Z,71.3
2022-09-23T10:13:14.092Z,71.0
2022-09-23T10:14:09.436Z,71.0
2022-09-23T10:15:00.174Z,72.7
2022-09-23T10:16:01.564Z,73.5
2022-09-23T10:17:03.177Z,70.8
2022-09-23T10:18:00.322Z,71.5
2022-09-23T10:19:02.964Z,71.9
2022-09-23T10:20:05.703Z,70.8
2022-09-23T10:21:11.509Z,70.2
2022-09-23T10:22:03.619Z,70.0
2022-09-23T10:23:05.842Z,70.9
2022-09-23T10:24:02.981Z,70.6
2022-09-23T10:25:05.876Z,69.3
2022-09-23T10:26:03.397Z,70.8
2022-09-23T10:27:03.964Z,70.5
2022-09-23T10:28:20.071Z,70.4
2022-09-23T10:29:11.547Z,70.4
2022-09-23T10:30:04.612Z,69.7
2022-09-23T10:31:05.236Z,67.2
2022-09-23T10:32:19.445Z,69.7
2022-09-23T10:33:00.216Z,69.7
2022-09-23T10:34:02.386Z,69.7
2022-09-23T10:35:13.626Z,71.5
2022-09-23T10:36:00.233Z,69.8
2022-09-23T10:37:12.328Z,69.8
2022-09-23T10:38:00.456Z,69.1
2022-09-23T10:39:04.028Z,69.2
2022-09-23T10:40:13.183Z,68.8
2022-09-23T10:41:01.493Z,72.3
2022-09-23T10:42:07.831Z,75.2
2022-09-23T10:43:16.220Z,73.4
2022-09-23T10:44:10.277Z,73.4
2022-09-23T10:45:13.396Z,69.9
2022-09-23T10:46:04.225Z,68.5
2022-09-23T10:47:12.215Z,68.0
2022-09-23T10:48:17.242Z,68.5
2022-09-23T10:49:10.116Z,68.5
2022-09-23T10:50:13.581Z,71.1
2022-09-23T10:51:11.873Z,69.8
2022-09-23T10:52:08.700Z,69.5
2022-09-23T10:53:08.779Z,69.4
2022-09-23T10:54:12.407Z,70.1
2022-09-23T10:55:04.440Z,70.5
2022-09-23T10:56:10.124Z,69.6
2022-09-23T10:57:12.295Z,72.3
2022-09-23T10:58:20.088Z,69.1
2022-09-23T10:59:03.562Z,69.1
2022-09-23T11:00:10.124Z,69.4
2022-09-23T11:01:20.170Z,69.7
2022-09-23T11:02:10.125Z,69.7
2022-09-23T11:03:20.092Z,72.2
2022-09-23T11:04:07.757Z,72.2
2022-09-23T11:05:18.319Z,68.1
2022-09-23T11:06:20.092Z,67.9
2022-09-23T11:07:17.527Z,68.4
2022-09-23T11:08:20.082Z,68.4
2022-09-23T11:09:17.603Z,67.2
2022-09-23T11:10:03.453Z,67.2
2022-09-23T11:11:20.113Z,67.9
2022-09-23T11:12:15.792Z,69.1
2022-09-23T11:13:07.937Z,69.1
2022-09-23T11:14:00.164Z,67.2
2022-09-23T11:15:12.662Z,69.0
2022-09-23T11:16:11.262Z,70.5
2022-09-23T11:17:20.024Z,66.3
2022-09-23T11:18:17.478Z,64.9
2022-09-23T11:19:13.403Z,64.9
2022-09-23T11:20:20.117Z,63.3
2022-09-23T11:21:12.775Z,63.3
2022-09-23T11:22:14.637Z,62.2
2022-09-23T11:23:20.120Z,61.8
2022-09-23T11:24:01.297Z,61.8
2022-09-23T11:25:13.401Z,64.0
2022-09-23T11:26:12.621Z,64.6
2022-09-23T11:27:18.253Z,61.0
2022-09-23T11:28:20.104Z,62.3
2022-09-23T11:29:15.179Z,62.3
2022-09-23T11:30:09.514Z,62.3
2022-09-23T11:31:20.153Z,63.3
2022-09-23T11:32:10.076Z,63.3
2022-09-23T11:33:20.089Z,64.3
2022-09-23T11:34:20.265Z,63.8
2022-09-23T11:35:20.026Z,62.1
2022-09-23T11:36:06.916Z,62.1
2022-09-23T11:37:13.088Z,59.2
2022-09-23T11:38:12.862Z,60.2
2022-09-23T11:39:05.626Z,61.0
2022-09-23T11:40:06.139Z,60.7
2022-09-23T11:41:12.879Z,57.9
2022-09-23T11:42:02.412Z,56.3
2022-09-23T11:43:11.135Z,57.2
2022-09-23T11:44:06.895Z,56.1
2022-09-23T11:45:06.386Z,56.7
2022-09-23T11:46:11.216Z,58.5
2022-09-23T11:47:14.131Z,59.3
2022-09-23T11:48:07.936Z,59.3
2022-09-23T11:49:20.083Z,58.9
2022-09-23T11:50:04.412Z,58.9
2022-09-23T11:51:05.509Z,59.3
2022-09-23T11:52:10.153Z,60.2
2022-09-23T11:53:10.770Z,60.5
2022-09-23T11:54:09.551Z,60.7
2022-09-23T11:55:17.202Z,61.1
2022-09-23T11:56:08.141Z,61.6
2022-09-23T11:57:03.703Z,61.8
2022-09-23T11:58:21.399Z,60.8
2022-09-23T11:59:02.302Z,62.1
2022-09-23T12:00:06.135Z,62.7
2022-09-23T12:01:03.980Z,61.8
2022-09-23T12:02:17.968Z,63.6
2022-09-23T12:03:20.560Z,62.6
2022-09-23T12:04:18.902Z,62.6
2022-09-23T12:05:07.163Z,62.8
2022-09-23T12:06:05.484Z,63.4
2022-09-23T12:07:08.569Z,64.4
2022-09-23T12:08:16.147Z,61.3
2022-09-23T12:09:11.449Z,61.3
2022-09-23T12:10:04.504Z,61.8
2022-09-23T12:11:18.279Z,60.7
2022-09-23T12:12:03.494Z,60.7
2022-09-23T12:13:15.755Z,60.7
2022-09-23T12:14:11.183Z,60.7
2022-09-23T12:15:09.850Z,60.4
2022-09-23T12:16:04.520Z,61.0
2022-09-23T12:17:08.523Z,61.1
2022-09-23T12:18:23.170Z,61.1
2022-09-23T12:19:09.236Z,61.1
2022-09-23T12:20:15.215Z,61.3
2022-09-23T12:21:07.595Z,61.3
2022-09-23T12:22:11.147Z,63.0
2022-09-23T12:23:11.170Z,63.3
2022-09-23T12:24:08.504Z,61.8
2022-09-23T12:25:13.390Z,62.9
2022-09-23T12:26:04.525Z,60.0
2022-09-23T12:27:05.910Z,61.1
2022-09-23T12:28:04.776Z,61.4
2022-09-23T12:29:03.445Z,61.8
2022-09-23T12:30:12.030Z,62.4
2022-09-23T12:31:03.466Z,60.9
2022-09-23T12:32:00.483Z,63.5
2022-09-23T12:33:09.493Z,63.2
2022-09-23T12:34:05.444Z,63.1
2022-09-23T12:35:00.386Z,63.3
2022-09-23T12:36:04.736Z,60.9
2022-09-23T12:37:03.847Z,61.8
2022-09-23T12:38:00.710Z,62.5
2022-09-23T12:39:15.434Z,62.3
2022-09-23T12:40:06.855Z,62.3
2022-09-23T12:41:00.608Z,61.2
2022-09-23T12:42:04.187Z,59.8
2022-09-23T12:43:01.489Z,59.6
2022-09-23T12:44:10.786Z,58.8
2022-09-23T12:45:20.130Z,59.5
2022-09-23T12:46:19.115Z,59.8
2022-09-23T12:47:13.426Z,59.8
2022-09-23T12:48:02.914Z,60.3
2022-09-23T12:49:02.607Z,60.2
2022-09-23T12:50:00.250Z,61.4
2022-09-23T12:51:03.468Z,60.2
2022-09-23T12:52:17.469Z,60.8
2022-09-23T12:53:20.111Z,61.0
2022-09-23T12:54:03.557Z,61.0
2022-09-23T12:55:20.146Z,59.8
2022-09-23T12:56:11.421Z,59.8
2022-09-23T12:57:00.886Z,59.6
2022-09-23T12:58:00.265Z,59.4
2022-09-23T12:59:17.559Z,58.3
2022-09-23T13:00:10.254Z,58.3
2022-09-23T13:01:17.205Z,58.2
2022-09-23T13:02:20.199Z,57.6
2022-09-23T13:03:00.589Z,57.6
2022-09-23T13:04:00.405Z,58.8
2022-09-23T13:05:07.527Z,59.6
2022-09-23T13:06:00.767Z,58.3